sensor_id;sensor_type;location;lat;lon;timestamp;pressure;altitude;pressure_sealevel;temperature;humidity
84712;BME280;74937;44.534;18.684;2023-12-20T00:00:58;98957.28;;;1.80;76.08
84712;BME280;74937;44.534;18.684;2023-12-20T00:03:23;98952.75;;;1.85;75.71
84712;BME280;74937;44.534;18.684;2023-12-20T00:05:49;98952.69;;;1.87;75.88
84712;BME280;74937;44.534;18.684;2023-12-20T00:08:15;98949.25;;;1.86;75.48
84712;BME280;74937;44.534;18.684;2023-12-20T00:10:41;98945.66;;;1.89;75.22
84712;BME280;74937;44.534;18.684;2023-12-20T00:13:07;98952.44;;;1.93;74.34
84712;BME280;74937;44.534;18.684;2023-12-20T00:15:33;98943.22;;;1.86;74.69
84712;BME280;74937;44.534;18.684;2023-12-20T00:17:59;98948.47;;;1.84;74.78
84712;BME280;74937;44.534;18.684;2023-12-20T00:20:26;98940.53;;;1.87;74.84
84712;BME280;74937;44.534;18.684;2023-12-20T00:22:52;98931.97;;;1.85;74.52
84712;BME280;74937;44.534;18.684;2023-12-20T00:25:17;98942.38;;;1.85;74.55
84712;BME280;74937;44.534;18.684;2023-12-20T00:27:43;98939.19;;;1.79;74.69
84712;BME280;74937;44.534;18.684;2023-12-20T00:30:09;98939.00;;;1.83;74.27
84712;BME280;74937;44.534;18.684;2023-12-20T00:32:35;98938.66;;;1.71;75.07
84712;BME280;74937;44.534;18.684;2023-12-20T00:35:01;98938.75;;;1.68;74.96
84712;BME280;74937;44.534;18.684;2023-12-20T00:37:27;98935.25;;;1.69;74.92
84712;BME280;74937;44.534;18.684;2023-12-20T00:39:52;98930.28;;;1.62;75.28
84712;BME280;74937;44.534;18.684;2023-12-20T00:42:18;98933.56;;;1.68;74.33
84712;BME280;74937;44.534;18.684;2023-12-20T00:44:44;98921.63;;;1.63;75.50
84712;BME280;74937;44.534;18.684;2023-12-20T00:47:10;98925.84;;;1.66;74.36
84712;BME280;74937;44.534;18.684;2023-12-20T00:49:35;98918.09;;;1.65;74.38
84712;BME280;74937;44.534;18.684;2023-12-20T00:52:01;98920.16;;;1.56;75.47
84712;BME280;74937;44.534;18.684;2023-12-20T00:54:27;98916.28;;;1.67;75.04
84712;BME280;74937;44.534;18.684;2023-12-20T00:56:52;98911.81;;;1.70;74.70
84712;BME280;74937;44.534;18.684;2023-12-20T00:59:19;98915.44;;;1.66;75.24
84712;BME280;74937;44.534;18.684;2023-12-20T01:01:44;98911.25;;;1.62;74.69
84712;BME280;74937;44.534;18.684;2023-12-20T01:04:10;98906.81;;;1.66;73.99
84712;BME280;74937;44.534;18.684;2023-12-20T01:06:36;98902.03;;;1.55;74.91
84712;BME280;74937;44.534;18.684;2023-12-20T01:09:01;98902.28;;;1.49;74.98
84712;BME280;74937;44.534;18.684;2023-12-20T01:11:28;98901.19;;;1.54;74.54
84712;BME280;74937;44.534;18.684;2023-12-20T01:13:53;98904.56;;;1.56;74.03
84712;BME280;74937;44.534;18.684;2023-12-20T01:16:19;98902.41;;;1.46;74.68
84712;BME280;74937;44.534;18.684;2023-12-20T01:18:45;98899.66;;;1.50;74.69
84712;BME280;74937;44.534;18.684;2023-12-20T01:21:10;98900.22;;;1.35;75.92
84712;BME280;74937;44.534;18.684;2023-12-20T01:23:36;98885.47;;;1.37;76.12
84712;BME280;74937;44.534;18.684;2023-12-20T01:26:02;98874.28;;;1.35;75.12
84712;BME280;74937;44.534;18.684;2023-12-20T01:28:31;98880.31;;;1.35;75.47
84712;BME280;74937;44.534;18.684;2023-12-20T01:30:57;98871.66;;;1.35;75.01
84712;BME280;74937;44.534;18.684;2023-12-20T01:33:23;98869.22;;;1.32;75.18
84712;BME280;74937;44.534;18.684;2023-12-20T01:35:49;98864.78;;;1.34;75.55
84712;BME280;74937;44.534;18.684;2023-12-20T01:38:14;98865.69;;;1.33;74.83
84712;BME280;74937;44.534;18.684;2023-12-20T01:40:40;98860.63;;;1.30;74.92
84712;BME280;74937;44.534;18.684;2023-12-20T01:43:09;98858.69;;;1.35;74.61
84712;BME280;74937;44.534;18.684;2023-12-20T01:45:35;98849.16;;;1.35;74.56
84712;BME280;74937;44.534;18.684;2023-12-20T01:48:02;98843.66;;;1.21;74.81
84712;BME280;74937;44.534;18.684;2023-12-20T01:50:29;98844.34;;;1.26;74.25
84712;BME280;74937;44.534;18.684;2023-12-20T01:52:58;98840.09;;;1.24;74.96
84712;BME280;74937;44.534;18.684;2023-12-20T01:55:28;98836.91;;;1.17;75.39
84712;BME280;74937;44.534;18.684;2023-12-20T01:57:55;98835.63;;;1.27;74.39
84712;BME280;74937;44.534;18.684;2023-12-20T02:00:22;98832.25;;;1.25;74.51
84712;BME280;74937;44.534;18.684;2023-12-20T02:02:50;98831.78;;;1.16;75.44
84712;BME280;74937;44.534;18.684;2023-12-20T02:05:18;98817.94;;;1.15;75.22
84712;BME280;74937;44.534;18.684;2023-12-20T02:07:44;98816.41;;;1.11;75.64
84712;BME280;74937;44.534;18.684;2023-12-20T02:10:09;98814.50;;;1.15;75.46
84712;BME280;74937;44.534;18.684;2023-12-20T02:12:35;98807.38;;;1.20;75.67
84712;BME280;74937;44.534;18.684;2023-12-20T02:15:01;98800.53;;;1.19;74.77
84712;BME280;74937;44.534;18.684;2023-12-20T02:17:27;98795.91;;;1.25;73.89
84712;BME280;74937;44.534;18.684;2023-12-20T02:19:53;98783.63;;;1.08;74.64
84712;BME280;74937;44.534;18.684;2023-12-20T02:22:18;98787.25;;;1.04;74.83
84712;BME280;74937;44.534;18.684;2023-12-20T02:24:44;98781.56;;;0.95;75.54
84712;BME280;74937;44.534;18.684;2023-12-20T02:27:10;98775.47;;;0.96;75.36
84712;BME280;74937;44.534;18.684;2023-12-20T02:29:36;98779.66;;;1.00;74.84
84712;BME280;74937;44.534;18.684;2023-12-20T02:32:02;98776.06;;;1.02;74.61
84712;BME280;74937;44.534;18.684;2023-12-20T02:34:28;98775.91;;;1.07;74.55
84712;BME280;74937;44.534;18.684;2023-12-20T02:36:54;98768.03;;;1.08;73.83
84712;BME280;74937;44.534;18.684;2023-12-20T02:39:21;98768.50;;;0.98;74.89
84712;BME280;74937;44.534;18.684;2023-12-20T02:41:48;98763.09;;;1.02;74.65
84712;BME280;74937;44.534;18.684;2023-12-20T02:44:14;98756.22;;;1.01;74.84
84712;BME280;74937;44.534;18.684;2023-12-20T02:46:39;98762.44;;;0.97;74.82
84712;BME280;74937;44.534;18.684;2023-12-20T02:49:06;98749.44;;;0.97;74.62
84712;BME280;74937;44.534;18.684;2023-12-20T02:51:32;98751.03;;;1.01;74.23
84712;BME280;74937;44.534;18.684;2023-12-20T02:53:57;98744.41;;;0.94;74.60
84712;BME280;74937;44.534;18.684;2023-12-20T02:56:23;98737.34;;;0.98;73.98
84712;BME280;74937;44.534;18.684;2023-12-20T02:58:48;98743.56;;;0.94;74.56
84712;BME280;74937;44.534;18.684;2023-12-20T03:01:14;98739.22;;;0.94;73.71
84712;BME280;74937;44.534;18.684;2023-12-20T03:03:40;98737.38;;;0.96;74.12
84712;BME280;74937;44.534;18.684;2023-12-20T03:06:05;98732.50;;;0.89;74.96
84712;BME280;74937;44.534;18.684;2023-12-20T03:08:31;98733.59;;;0.83;75.35
84712;BME280;74937;44.534;18.684;2023-12-20T03:10:59;98727.81;;;0.76;74.74
84712;BME280;74937;44.534;18.684;2023-12-20T03:13:25;98729.31;;;0.82;75.11
84712;BME280;74937;44.534;18.684;2023-12-20T03:15:50;98727.75;;;0.78;74.85
84712;BME280;74937;44.534;18.684;2023-12-20T03:18:16;98728.66;;;0.77;74.62
84712;BME280;74937;44.534;18.684;2023-12-20T03:20:42;98726.66;;;0.84;74.36
84712;BME280;74937;44.534;18.684;2023-12-20T03:23:08;98728.41;;;0.83;74.45
84712;BME280;74937;44.534;18.684;2023-12-20T03:25:33;98720.88;;;0.77;73.99
84712;BME280;74937;44.534;18.684;2023-12-20T03:28:00;98729.72;;;0.73;74.81
84712;BME280;74937;44.534;18.684;2023-12-20T03:30:25;98722.69;;;0.75;74.54
84712;BME280;74937;44.534;18.684;2023-12-20T03:32:51;98713.94;;;0.77;74.64
84712;BME280;74937;44.534;18.684;2023-12-20T03:35:17;98713.16;;;0.75;74.60
84712;BME280;74937;44.534;18.684;2023-12-20T03:37:42;98711.25;;;0.80;74.84
84712;BME280;74937;44.534;18.684;2023-12-20T03:40:09;98702.53;;;0.81;74.43
84712;BME280;74937;44.534;18.684;2023-12-20T03:42:34;98698.59;;;0.73;74.60
84712;BME280;74937;44.534;18.684;2023-12-20T03:45:00;98693.16;;;0.79;73.79
84712;BME280;74937;44.534;18.684;2023-12-20T03:47:26;98685.63;;;0.73;74.21
84712;BME280;74937;44.534;18.684;2023-12-20T03:49:52;98694.91;;;0.78;73.91
84712;BME280;74937;44.534;18.684;2023-12-20T03:52:18;98682.28;;;0.69;73.67
84712;BME280;74937;44.534;18.684;2023-12-20T03:54:44;98686.78;;;0.66;74.16
84712;BME280;74937;44.534;18.684;2023-12-20T03:57:09;98682.47;;;0.65;74.42
84712;BME280;74937;44.534;18.684;2023-12-20T03:59:36;98681.34;;;0.72;73.50
84712;BME280;74937;44.534;18.684;2023-12-20T04:02:02;98689.63;;;0.80;73.59
84712;BME280;74937;44.534;18.684;2023-12-20T04:04:27;98686.13;;;0.81;73.17
84712;BME280;74937;44.534;18.684;2023-12-20T04:06:53;98695.66;;;0.80;72.94
84712;BME280;74937;44.534;18.684;2023-12-20T04:09:18;98680.59;;;0.68;73.49
84712;BME280;74937;44.534;18.684;2023-12-20T04:11:44;98682.28;;;0.69;73.81
84712;BME280;74937;44.534;18.684;2023-12-20T04:14:10;98689.16;;;0.70;73.75
84712;BME280;74937;44.534;18.684;2023-12-20T04:16:35;98682.19;;;0.72;73.44
84712;BME280;74937;44.534;18.684;2023-12-20T04:19:01;98678.06;;;0.67;73.44
84712;BME280;74937;44.534;18.684;2023-12-20T04:21:27;98670.97;;;0.72;72.81
84712;BME280;74937;44.534;18.684;2023-12-20T04:23:53;98673.13;;;0.61;73.09
84712;BME280;74937;44.534;18.684;2023-12-20T04:26:19;98668.91;;;0.58;73.21
84712;BME280;74937;44.534;18.684;2023-12-20T04:28:44;98674.03;;;0.60;73.40
84712;BME280;74937;44.534;18.684;2023-12-20T04:31:10;98659.44;;;0.57;73.74
84712;BME280;74937;44.534;18.684;2023-12-20T04:33:35;98660.34;;;0.56;73.17
84712;BME280;74937;44.534;18.684;2023-12-20T04:36:01;98649.91;;;0.58;73.33
84712;BME280;74937;44.534;18.684;2023-12-20T04:38:27;98652.50;;;0.58;73.09
84712;BME280;74937;44.534;18.684;2023-12-20T04:40:52;98654.47;;;0.52;73.57
84712;BME280;74937;44.534;18.684;2023-12-20T04:43:18;98654.31;;;0.56;73.03
84712;BME280;74937;44.534;18.684;2023-12-20T04:45:44;98655.50;;;0.69;72.45
84712;BME280;74937;44.534;18.684;2023-12-20T04:48:09;98648.41;;;0.52;72.94
84712;BME280;74937;44.534;18.684;2023-12-20T04:50:35;98671.03;;;0.48;73.42
84712;BME280;74937;44.534;18.684;2023-12-20T04:53:01;98657.41;;;0.43;73.47
84712;BME280;74937;44.534;18.684;2023-12-20T04:55:26;98654.34;;;0.34;74.74
84712;BME280;74937;44.534;18.684;2023-12-20T04:57:52;98658.31;;;0.42;73.37
84712;BME280;74937;44.534;18.684;2023-12-20T05:00:18;98656.56;;;0.43;73.44
84712;BME280;74937;44.534;18.684;2023-12-20T05:02:43;98655.66;;;0.44;73.32
84712;BME280;74937;44.534;18.684;2023-12-20T05:05:28;98656.88;;;0.35;73.93
84712;BME280;74937;44.534;18.684;2023-12-20T05:07:54;98660.22;;;0.37;73.35
84712;BME280;74937;44.534;18.684;2023-12-20T05:10:19;98662.97;;;0.34;73.62
84712;BME280;74937;44.534;18.684;2023-12-20T05:12:45;98656.13;;;0.32;73.70
84712;BME280;74937;44.534;18.684;2023-12-20T05:15:10;98658.13;;;0.25;74.45
84712;BME280;74937;44.534;18.684;2023-12-20T05:17:36;98653.59;;;0.30;74.12
84712;BME280;74937;44.534;18.684;2023-12-20T05:20:02;98661.63;;;0.24;74.49
84712;BME280;74937;44.534;18.684;2023-12-20T05:22:28;98655.41;;;0.28;73.52
84712;BME280;74937;44.534;18.684;2023-12-20T05:24:53;98653.84;;;0.24;74.03
84712;BME280;74937;44.534;18.684;2023-12-20T05:27:19;98658.97;;;0.25;74.06
84712;BME280;74937;44.534;18.684;2023-12-20T05:29:45;98651.06;;;0.29;73.36
84712;BME280;74937;44.534;18.684;2023-12-20T05:32:10;98656.38;;;0.25;74.07
84712;BME280;74937;44.534;18.684;2023-12-20T05:34:36;98646.91;;;0.24;73.77
84712;BME280;74937;44.534;18.684;2023-12-20T05:37:02;98642.69;;;0.22;74.02
84712;BME280;74937;44.534;18.684;2023-12-20T05:39:27;98640.81;;;0.25;73.77
84712;BME280;74937;44.534;18.684;2023-12-20T05:41:53;98635.75;;;0.22;74.02
84712;BME280;74937;44.534;18.684;2023-12-20T05:44:19;98638.97;;;0.29;73.54
84712;BME280;74937;44.534;18.684;2023-12-20T05:46:44;98634.00;;;0.23;73.77
84712;BME280;74937;44.534;18.684;2023-12-20T05:49:10;98626.84;;;0.30;73.76
84712;BME280;74937;44.534;18.684;2023-12-20T05:51:36;98625.88;;;0.32;73.53
84712;BME280;74937;44.534;18.684;2023-12-20T05:54:02;98615.50;;;0.32;73.39
84712;BME280;74937;44.534;18.684;2023-12-20T05:56:27;98622.25;;;0.36;72.69
84712;BME280;74937;44.534;18.684;2023-12-20T05:58:53;98617.91;;;0.37;72.47
84712;BME280;74937;44.534;18.684;2023-12-20T06:01:18;98621.25;;;0.40;72.55
84712;BME280;74937;44.534;18.684;2023-12-20T06:03:44;98615.81;;;0.46;71.49
84712;BME280;74937;44.534;18.684;2023-12-20T06:06:11;98620.44;;;0.38;71.61
84712;BME280;74937;44.534;18.684;2023-12-20T06:08:38;98617.25;;;0.32;72.80
84712;BME280;74937;44.534;18.684;2023-12-20T06:11:03;98620.03;;;0.27;72.09
84712;BME280;74937;44.534;18.684;2023-12-20T06:13:30;98616.47;;;0.30;72.85
84712;BME280;74937;44.534;18.684;2023-12-20T06:15:55;98611.34;;;0.28;72.62
84712;BME280;74937;44.534;18.684;2023-12-20T06:18:21;98607.97;;;0.26;72.87
84712;BME280;74937;44.534;18.684;2023-12-20T06:20:47;98607.19;;;0.24;72.96
84712;BME280;74937;44.534;18.684;2023-12-20T06:23:12;98595.66;;;0.31;73.01
84712;BME280;74937;44.534;18.684;2023-12-20T06:25:38;98599.16;;;0.30;72.67
84712;BME280;74937;44.534;18.684;2023-12-20T06:28:04;98600.06;;;0.29;72.93
84712;BME280;74937;44.534;18.684;2023-12-20T06:30:30;98600.81;;;0.33;73.18
84712;BME280;74937;44.534;18.684;2023-12-20T06:32:58;98598.25;;;0.31;73.56
84712;BME280;74937;44.534;18.684;2023-12-20T06:35:24;98598.84;;;0.38;73.88
84712;BME280;74937;44.534;18.684;2023-12-20T06:37:50;98600.28;;;0.45;73.25
84712;BME280;74937;44.534;18.684;2023-12-20T06:40:16;98602.88;;;0.45;72.42
84712;BME280;74937;44.534;18.684;2023-12-20T06:42:41;98603.34;;;0.34;72.89
84712;BME280;74937;44.534;18.684;2023-12-20T06:45:07;98606.69;;;0.36;73.34
84712;BME280;74937;44.534;18.684;2023-12-20T06:47:33;98606.97;;;0.50;72.25
84712;BME280;74937;44.534;18.684;2023-12-20T06:49:59;98606.22;;;0.48;72.58
84712;BME280;74937;44.534;18.684;2023-12-20T06:52:26;98610.47;;;0.49;72.15
84712;BME280;74937;44.534;18.684;2023-12-20T06:54:52;98599.09;;;0.32;72.81
84712;BME280;74937;44.534;18.684;2023-12-20T06:57:17;98603.69;;;0.47;72.52
84712;BME280;74937;44.534;18.684;2023-12-20T06:59:45;98599.53;;;0.63;71.51
84712;BME280;74937;44.534;18.684;2023-12-20T07:02:10;98592.03;;;0.98;71.50
84712;BME280;74937;44.534;18.684;2023-12-20T07:04:40;98594.34;;;1.43;69.32
84712;BME280;74937;44.534;18.684;2023-12-20T07:07:06;98582.91;;;1.47;68.87
84712;BME280;74937;44.534;18.684;2023-12-20T07:09:33;98578.28;;;1.54;68.23
84712;BME280;74937;44.534;18.684;2023-12-20T07:11:59;98583.41;;;1.93;67.41
84712;BME280;74937;44.534;18.684;2023-12-20T07:14:24;98581.06;;;2.59;64.01
84712;BME280;74937;44.534;18.684;2023-12-20T07:16:50;98580.38;;;3.41;61.29
84712;BME280;74937;44.534;18.684;2023-12-20T07:19:16;98580.16;;;3.93;59.53
84712;BME280;74937;44.534;18.684;2023-12-20T07:21:42;98581.03;;;4.39;58.02
84712;BME280;74937;44.534;18.684;2023-12-20T07:24:07;98586.97;;;4.87;55.75
84712;BME280;74937;44.534;18.684;2023-12-20T07:26:33;98582.78;;;4.99;54.38
84712;BME280;74937;44.534;18.684;2023-12-20T07:29:00;98587.28;;;5.25;54.59
84712;BME280;74937;44.534;18.684;2023-12-20T07:31:25;98585.25;;;5.30;53.92
84712;BME280;74937;44.534;18.684;2023-12-20T07:33:51;98576.84;;;5.25;53.34
84712;BME280;74937;44.534;18.684;2023-12-20T07:36:17;98579.47;;;5.25;53.93
84712;BME280;74937;44.534;18.684;2023-12-20T07:38:42;98585.06;;;5.33;53.84
84712;BME280;74937;44.534;18.684;2023-12-20T07:41:09;98574.53;;;5.49;53.47
84712;BME280;74937;44.534;18.684;2023-12-20T07:43:35;98575.56;;;5.61;53.36
84712;BME280;74937;44.534;18.684;2023-12-20T07:46:08;98568.41;;;5.77;53.65
84712;BME280;74937;44.534;18.684;2023-12-20T07:48:35;98565.22;;;6.01;52.45
84712;BME280;74937;44.534;18.684;2023-12-20T07:51:02;98565.19;;;6.15;51.75
84712;BME280;74937;44.534;18.684;2023-12-20T07:53:27;98575.81;;;6.26;51.34
84712;BME280;74937;44.534;18.684;2023-12-20T07:55:53;98571.97;;;6.44;51.91
84712;BME280;74937;44.534;18.684;2023-12-20T07:58:19;98566.88;;;6.56;50.79
84712;BME280;74937;44.534;18.684;2023-12-20T08:00:45;98576.00;;;6.63;51.00
84712;BME280;74937;44.534;18.684;2023-12-20T08:03:10;98562.13;;;6.75;51.00
84712;BME280;74937;44.534;18.684;2023-12-20T08:05:38;98566.97;;;6.94;50.41
84712;BME280;74937;44.534;18.684;2023-12-20T08:08:06;98575.38;;;7.12;49.92
84712;BME280;74937;44.534;18.684;2023-12-20T08:10:32;98573.66;;;7.23;50.15
84712;BME280;74937;44.534;18.684;2023-12-20T08:12:57;98576.22;;;7.38;49.46
84712;BME280;74937;44.534;18.684;2023-12-20T08:15:23;98570.13;;;7.50;49.51
84712;BME280;74937;44.534;18.684;2023-12-20T08:17:49;98561.78;;;7.69;48.85
84712;BME280;74937;44.534;18.684;2023-12-20T08:20:18;98572.13;;;7.96;48.57
84712;BME280;74937;44.534;18.684;2023-12-20T08:22:44;98564.50;;;8.16;48.30
84712;BME280;74937;44.534;18.684;2023-12-20T08:25:10;98557.97;;;8.46;47.15
84712;BME280;74937;44.534;18.684;2023-12-20T08:27:40;98557.81;;;8.72;46.57
84712;BME280;74937;44.534;18.684;2023-12-20T08:30:08;98556.19;;;8.82;46.45
84712;BME280;74937;44.534;18.684;2023-12-20T08:32:34;98548.47;;;9.03;46.55
84712;BME280;74937;44.534;18.684;2023-12-20T08:35:00;98555.31;;;9.16;46.40
84712;BME280;74937;44.534;18.684;2023-12-20T08:37:26;98551.88;;;9.27;45.92
84712;BME280;74937;44.534;18.684;2023-12-20T08:39:51;98556.28;;;9.38;46.36
84712;BME280;74937;44.534;18.684;2023-12-20T08:42:17;98554.13;;;9.54;45.91
84712;BME280;74937;44.534;18.684;2023-12-20T08:44:43;98552.94;;;9.69;45.92
84712;BME280;74937;44.534;18.684;2023-12-20T08:47:09;98549.09;;;9.73;45.94
84712;BME280;74937;44.534;18.684;2023-12-20T08:49:39;98557.56;;;9.88;45.92
84712;BME280;74937;44.534;18.684;2023-12-20T08:52:05;98541.63;;;10.01;45.65
84712;BME280;74937;44.534;18.684;2023-12-20T08:54:30;98548.28;;;10.16;45.65
84712;BME280;74937;44.534;18.684;2023-12-20T08:56:57;98540.59;;;10.36;45.13
84712;BME280;74937;44.534;18.684;2023-12-20T08:59:22;98531.69;;;10.48;45.05
84712;BME280;74937;44.534;18.684;2023-12-20T09:01:48;98533.59;;;10.57;45.79
84712;BME280;74937;44.534;18.684;2023-12-20T09:04:20;98530.59;;;10.82;45.33
84712;BME280;74937;44.534;18.684;2023-12-20T09:06:46;98534.06;;;11.04;44.96
84712;BME280;74937;44.534;18.684;2023-12-20T09:09:11;98527.63;;;10.97;44.95
84712;BME280;74937;44.534;18.684;2023-12-20T09:11:39;98528.66;;;11.05;44.85
84712;BME280;74937;44.534;18.684;2023-12-20T09:14:05;98523.75;;;11.22;44.46
84712;BME280;74937;44.534;18.684;2023-12-20T09:16:30;98506.59;;;11.37;43.91
84712;BME280;74937;44.534;18.684;2023-12-20T09:18:57;98505.13;;;11.54;43.43
84712;BME280;74937;44.534;18.684;2023-12-20T09:21:23;98504.63;;;11.69;43.21
84712;BME280;74937;44.534;18.684;2023-12-20T09:23:49;98492.06;;;11.92;42.66
84712;BME280;74937;44.534;18.684;2023-12-20T09:26:15;98497.66;;;12.09;42.14
84712;BME280;74937;44.534;18.684;2023-12-20T09:28:40;98491.53;;;12.37;42.29
84712;BME280;74937;44.534;18.684;2023-12-20T09:31:08;98487.91;;;12.58;41.68
84712;BME280;74937;44.534;18.684;2023-12-20T09:33:33;98480.16;;;12.37;42.05
84712;BME280;74937;44.534;18.684;2023-12-20T09:35:59;98476.09;;;12.04;42.73
84712;BME280;74937;44.534;18.684;2023-12-20T09:38:25;98478.19;;;11.60;44.16
84712;BME280;74937;44.534;18.684;2023-12-20T09:40:51;98469.66;;;11.37;44.54
84712;BME280;74937;44.534;18.684;2023-12-20T09:43:19;98462.81;;;11.25;44.98
84712;BME280;74937;44.534;18.684;2023-12-20T09:45:47;98457.22;;;10.87;46.49
84712;BME280;74937;44.534;18.684;2023-12-20T09:48:13;98460.75;;;10.56;48.05
84712;BME280;74937;44.534;18.684;2023-12-20T09:50:41;98444.28;;;10.22;50.01
84712;BME280;74937;44.534;18.684;2023-12-20T09:53:08;98444.34;;;10.11;50.13
84712;BME280;74937;44.534;18.684;2023-12-20T09:55:36;98443.97;;;10.04;50.78
84712;BME280;74937;44.534;18.684;2023-12-20T09:58:02;98441.56;;;10.12;50.29
84712;BME280;74937;44.534;18.684;2023-12-20T10:00:29;98439.50;;;10.16;50.14
84712;BME280;74937;44.534;18.684;2023-12-20T10:02:59;98441.16;;;10.17;50.25
84712;BME280;74937;44.534;18.684;2023-12-20T10:05:32;98438.44;;;10.18;49.84
84712;BME280;74937;44.534;18.684;2023-12-20T10:07:58;98434.25;;;10.16;50.46
84712;BME280;74937;44.534;18.684;2023-12-20T10:10:25;98433.69;;;10.12;50.64
84712;BME280;74937;44.534;18.684;2023-12-20T10:15:27;98430.06;;;10.24;49.62
84712;BME280;74937;44.534;18.684;2023-12-20T10:17:52;98436.91;;;10.37;49.54
84712;BME280;74937;44.534;18.684;2023-12-20T10:20:20;98424.66;;;10.47;48.93
84712;BME280;74937;44.534;18.684;2023-12-20T10:22:46;98434.88;;;10.61;48.98
84712;BME280;74937;44.534;18.684;2023-12-20T10:25:13;98421.75;;;10.71;48.64
84712;BME280;74937;44.534;18.684;2023-12-20T10:27:38;98419.97;;;10.71;48.62
84712;BME280;74937;44.534;18.684;2023-12-20T10:30:04;98414.72;;;10.50;48.36
84712;BME280;74937;44.534;18.684;2023-12-20T10:32:30;98405.00;;;10.30;48.91
84712;BME280;74937;44.534;18.684;2023-12-20T10:34:57;98412.28;;;10.05;49.52
84712;BME280;74937;44.534;18.684;2023-12-20T10:37:23;98412.69;;;9.90;49.50
84712;BME280;74937;44.534;18.684;2023-12-20T10:39:54;98404.38;;;9.73;50.02
84712;BME280;74937;44.534;18.684;2023-12-20T10:42:22;98413.28;;;9.61;50.69
84712;BME280;74937;44.534;18.684;2023-12-20T10:44:50;98409.25;;;9.46;51.25
84712;BME280;74937;44.534;18.684;2023-12-20T10:47:17;98410.44;;;9.31;52.43
84712;BME280;74937;44.534;18.684;2023-12-20T10:49:43;98396.25;;;9.22;52.55
84712;BME280;74937;44.534;18.684;2023-12-20T10:52:11;98399.38;;;9.16;52.87
84712;BME280;74937;44.534;18.684;2023-12-20T10:54:37;98394.47;;;9.11;53.52
84712;BME280;74937;44.534;18.684;2023-12-20T10:57:05;98390.88;;;9.12;53.39
84712;BME280;74937;44.534;18.684;2023-12-20T10:59:37;98392.09;;;9.19;53.71
84712;BME280;74937;44.534;18.684;2023-12-20T11:02:04;98392.38;;;9.37;53.08
84712;BME280;74937;44.534;18.684;2023-12-20T11:04:49;98391.84;;;9.66;52.47
84712;BME280;74937;44.534;18.684;2023-12-20T11:07:33;98397.28;;;9.85;52.27
84712;BME280;74937;44.534;18.684;2023-12-20T11:10:16;98388.16;;;9.89;52.69
84712;BME280;74937;44.534;18.684;2023-12-20T11:13:08;98390.34;;;9.84;53.26
84712;BME280;74937;44.534;18.684;2023-12-20T11:15:38;98388.22;;;9.78;53.23
84712;BME280;74937;44.534;18.684;2023-12-20T11:18:05;98386.94;;;9.72;52.90
84712;BME280;74937;44.534;18.684;2023-12-20T11:20:39;98384.53;;;9.69;53.10
84712;BME280;74937;44.534;18.684;2023-12-20T11:23:06;98379.03;;;9.72;54.70
84712;BME280;74937;44.534;18.684;2023-12-20T11:25:52;98385.19;;;9.83;54.02
84712;BME280;74937;44.534;18.684;2023-12-20T11:28:21;98385.34;;;10.02;52.54
84712;BME280;74937;44.534;18.684;2023-12-20T11:30:52;98381.69;;;10.25;51.95
84712;BME280;74937;44.534;18.684;2023-12-20T11:33:25;98376.53;;;10.45;51.17
84712;BME280;74937;44.534;18.684;2023-12-20T11:35:55;98379.41;;;10.63;50.41
84712;BME280;74937;44.534;18.684;2023-12-20T11:38:21;98384.22;;;10.78;50.46
84712;BME280;74937;44.534;18.684;2023-12-20T11:40:50;98381.50;;;10.90;50.69
84712;BME280;74937;44.534;18.684;2023-12-20T11:43:38;98375.84;;;11.04;50.38
84712;BME280;74937;44.534;18.684;2023-12-20T11:46:08;98371.31;;;11.16;50.05
84712;BME280;74937;44.534;18.684;2023-12-20T11:48:37;98374.91;;;11.14;50.37
84712;BME280;74937;44.534;18.684;2023-12-20T11:51:09;98372.41;;;11.13;49.98
84712;BME280;74937;44.534;18.684;2023-12-20T11:53:36;98375.56;;;11.07;49.75
84712;BME280;74937;44.534;18.684;2023-12-20T11:56:03;98374.88;;;11.05;49.56
84712;BME280;74937;44.534;18.684;2023-12-20T11:58:29;98373.22;;;11.04;49.93
84712;BME280;74937;44.534;18.684;2023-12-20T12:00:56;98368.72;;;10.95;50.44
84712;BME280;74937;44.534;18.684;2023-12-20T12:03:22;98380.06;;;10.85;50.70
84712;BME280;74937;44.534;18.684;2023-12-20T12:05:49;98376.44;;;10.77;50.55
84712;BME280;74937;44.534;18.684;2023-12-20T12:08:16;98374.06;;;10.74;50.01
84712;BME280;74937;44.534;18.684;2023-12-20T12:10:43;98368.22;;;10.70;50.62
84712;BME280;74937;44.534;18.684;2023-12-20T12:13:09;98367.47;;;10.58;51.11
84712;BME280;74937;44.534;18.684;2023-12-20T12:15:36;98368.97;;;10.51;51.69
84712;BME280;74937;44.534;18.684;2023-12-20T12:18:02;98372.63;;;10.39;52.04
84712;BME280;74937;44.534;18.684;2023-12-20T12:20:28;98365.63;;;10.28;52.42
84712;BME280;74937;44.534;18.684;2023-12-20T12:23:06;98359.06;;;10.23;52.44
84712;BME280;74937;44.534;18.684;2023-12-20T12:25:32;98367.34;;;10.18;52.66
84712;BME280;74937;44.534;18.684;2023-12-20T12:28:00;98366.63;;;10.16;53.10
84712;BME280;74937;44.534;18.684;2023-12-20T12:30:26;98360.50;;;10.16;53.80
84712;BME280;74937;44.534;18.684;2023-12-20T12:32:52;98358.03;;;10.14;53.55
84712;BME280;74937;44.534;18.684;2023-12-20T12:35:19;98354.41;;;10.15;54.37
84712;BME280;74937;44.534;18.684;2023-12-20T12:37:45;98370.53;;;10.22;54.40
84712;BME280;74937;44.534;18.684;2023-12-20T12:40:12;98371.63;;;10.19;54.71
84712;BME280;74937;44.534;18.684;2023-12-20T12:42:39;98375.94;;;10.20;54.79
84712;BME280;74937;44.534;18.684;2023-12-20T12:45:05;98375.69;;;10.23;54.75
84712;BME280;74937;44.534;18.684;2023-12-20T12:47:31;98380.59;;;10.28;54.78
84712;BME280;74937;44.534;18.684;2023-12-20T12:49:57;98388.13;;;10.32;54.16
84712;BME280;74937;44.534;18.684;2023-12-20T12:52:22;98387.28;;;10.32;53.11
84712;BME280;74937;44.534;18.684;2023-12-20T12:54:48;98383.31;;;10.38;53.10
84712;BME280;74937;44.534;18.684;2023-12-20T12:57:15;98388.16;;;10.42;52.46